createdAt,value
2017-10-05T00:00:58.284Z,83.20
2017-10-05T00:01:58.301Z,82.50
2017-10-05T00:02:58.242Z,81.90
2017-10-05T00:03:58.287Z,82.63
2017-10-05T00:04:58.315Z,80.94
2017-10-05T00:05:58.263Z,81.18
2017-10-05T00:06:58.208Z,81.44
2017-10-05T00:07:58.881Z,82.34
2017-10-05T00:08:59.565Z,82.16
2017-10-05T00:09:59.506Z,82.22
2017-10-05T00:10:59.133Z,80.56
2017-10-05T00:11:59.914Z,79.68
2017-10-05T00:12:59.530Z,79.33
2017-10-05T00:13:59.734Z,81.25
2017-10-05T00:14:59.253Z,81.48
2017-10-05T00:15:58.911Z,80.93
2017-10-05T00:16:58.242Z,82.63
2017-10-05T00:17:58.312Z,81.70
2017-10-05T00:18:58.302Z,80.84
2017-10-05T00:19:58.224Z,82.26
2017-10-05T00:20:58.353Z,82.25
2017-10-05T00:21:58.282Z,83.78
2017-10-05T00:22:58.325Z,82.75
2017-10-05T00:23:58.346Z,83.10
2017-10-05T00:24:58.277Z,83.20
2017-10-05T00:25:58.397Z,85.04
2017-10-05T00:26:58.358Z,83.23
2017-10-05T00:27:58.372Z,82.54
2017-10-05T00:28:58.390Z,85.87
2017-10-05T00:29:59.244Z,82.61
2017-10-05T00:30:59.246Z,83.40
2017-10-05T00:31:59.257Z,85.47
2017-10-05T00:32:58.273Z,83.42
2017-10-05T00:33:58.321Z,83.87
2017-10-05T00:34:58.361Z,84.47
2017-10-05T00:35:58.387Z,83.92
2017-10-05T00:36:58.315Z,83.46
2017-10-05T00:37:58.338Z,82.71
2017-10-05T00:38:58.465Z,82.81
2017-10-05T00:39:58.404Z,81.45
2017-10-05T00:40:58.363Z,81.65
2017-10-05T00:41:58.327Z,81.42
2017-10-05T00:42:58.380Z,82.68
2017-10-05T00:43:58.400Z,82.14
2017-10-05T00:44:59.232Z,82.51
2017-10-05T00:45:59.253Z,82.93
2017-10-05T00:46:59.276Z,84.05
2017-10-05T00:47:59.306Z,82.99
2017-10-05T00:48:58.330Z,83.13
2017-10-05T00:49:59.381Z,82.32
2017-10-05T00:50:58.402Z,81.43
2017-10-05T00:51:58.349Z,83.71
2017-10-05T00:52:58.408Z,82.08
2017-10-05T00:53:58.443Z,82.62
2017-10-05T00:54:58.390Z,82.79
2017-10-05T00:55:58.444Z,81.77
2017-10-05T00:56:58.391Z,81.64
2017-10-05T00:57:58.440Z,82.05
2017-10-05T00:58:58.469Z,81.86
2017-10-05T00:59:58.406Z,82.60
2017-10-05T01:02:31.109Z,83.73
2017-10-05T01:02:32.021Z,81.47
2017-10-05T01:02:58.482Z,82.79
2017-10-05T01:05:46.797Z,81.66
2017-10-05T01:05:48.225Z,83.40
2017-10-05T01:05:58.446Z,80.39
2017-10-05T01:08:31.139Z,82.51
2017-10-05T01:08:32.556Z,82.38
2017-10-05T01:08:58.420Z,82.37
2017-10-05T01:11:46.949Z,82.51
2017-10-05T01:11:47.860Z,81.62
2017-10-05T01:11:58.391Z,82.84
2017-10-05T01:14:36.193Z,84.17
2017-10-05T01:14:37.255Z,84.54
2017-10-05T01:14:58.511Z,83.14
2017-10-05T01:17:46.730Z,85.53
2017-10-05T01:17:48.154Z,84.35
2017-10-05T01:17:58.802Z,84.62
2017-10-05T01:20:32.851Z,83.37
2017-10-05T01:20:34.308Z,84.41
2017-10-05T01:20:58.449Z,84.02
2017-10-05T01:23:47.995Z,84.73
2017-10-05T01:23:49.009Z,85.36
2017-10-05T01:23:58.530Z,86.31
2017-10-05T01:27:07.198Z,86.66
2017-10-05T01:27:08.111Z,86.72
2017-10-05T01:27:09.224Z,85.64
2017-10-05T01:29:48.144Z,86.10
2017-10-05T01:29:49.145Z,87.96
2017-10-05T01:29:58.474Z,87.45
2017-10-05T01:32:36.271Z,86.77
2017-10-05T01:32:37.384Z,89.05
2017-10-05T01:32:58.533Z,87.92
2017-10-05T01:35:38.030Z,88.98
2017-10-05T01:35:39.041Z,89.87
2017-10-05T01:35:58.591Z,88.58
2017-10-05T01:39:06.942Z,90.32
2017-10-05T01:39:07.767Z,89.38
2017-10-05T01:39:08.783Z,90.39
2017-10-05T01:41:41.775Z,89.07
2017-10-05T01:41:42.681Z,88.89
2017-10-05T01:41:58.521Z,91.74
2017-10-05T01:44:31.106Z,90.32
2017-10-05T01:44:32.220Z,88.57
2017-10-05T01:44:58.588Z,90.33
2017-10-05T01:47:48.098Z,90.69
2017-10-05T01:47:48.912Z,89.88
2017-10-05T01:47:58.541Z,89.09
2017-10-05T01:50:34.132Z,88.64
2017-10-05T01:50:35.146Z,90.14
2017-10-05T01:50:58.609Z,91.92
2017-10-05T01:53:47.052Z,91.97
2017-10-05T01:53:48.472Z,92.99
2017-10-05T01:53:58.601Z,93.58
2017-10-05T01:56:31.803Z,93.33
2017-10-05T01:56:32.617Z,93.48
2017-10-05T01:56:58.677Z,93.09
2017-10-05T01:59:48.189Z,93.80
2017-10-05T01:59:49.302Z,95.06
2017-10-05T01:59:58.634Z,94.77
2017-10-05T02:01:00.164Z,95.20
2017-10-05T02:01:58.683Z,94.07
2017-10-05T02:02:58.603Z,93.95
2017-10-05T02:03:58.635Z,94.02
2017-10-05T02:04:58.676Z,94.16
2017-10-05T02:05:58.606Z,92.88
2017-10-05T02:06:58.629Z,94.25
2017-10-05T02:07:59.348Z,94.23
2017-10-05T02:08:59.371Z,94.36
2017-10-05T02:09:59.390Z,95.12
2017-10-05T02:10:59.514Z,95.53
2017-10-05T02:11:59.948Z,93.91
2017-10-05T02:12:59.986Z,94.52
2017-10-05T02:13:58.598Z,95.18
2017-10-05T02:14:58.618Z,95.80
2017-10-05T02:15:58.662Z,96.46
2017-10-05T02:16:58.701Z,95.93
2017-10-05T02:17:58.851Z,96.41
2017-10-05T02:18:58.678Z,96.21
2017-10-05T02:19:58.696Z,96.92
2017-10-05T02:20:58.751Z,97.71
2017-10-05T02:21:58.670Z,97.73
2017-10-05T02:22:58.717Z,97.70
2017-10-05T02:23:58.660Z,96.77
2017-10-05T02:24:58.689Z,96.84
2017-10-05T02:25:59.622Z,96.14
2017-10-05T02:26:59.636Z,95.85
2017-10-05T02:27:59.561Z,96.35
2017-10-05T02:29:00.096Z,96.12
2017-10-05T02:30:00.045Z,95.74
2017-10-05T02:30:59.706Z,95.87
2017-10-05T02:31:59.668Z,95.63
2017-10-05T02:32:58.783Z,95.85
2017-10-05T02:33:58.810Z,94.71
2017-10-05T02:34:58.744Z,92.71
2017-10-05T02:35:58.771Z,93.25
2017-10-05T02:36:58.801Z,94.60
2017-10-05T02:37:58.726Z,94.19
2017-10-05T02:38:58.761Z,94.56
2017-10-05T02:39:58.788Z,93.22
2017-10-05T02:40:58.820Z,93.32
2017-10-05T02:41:58.749Z,94.67
2017-10-05T02:42:58.769Z,94.46
2017-10-05T02:43:58.790Z,94.29
2017-10-05T02:44:58.806Z,93.57
2017-10-05T02:45:59.735Z,94.72
2017-10-05T02:46:59.759Z,93.84
2017-10-05T02:47:59.486Z,95.09
2017-10-05T02:48:58.800Z,94.09
2017-10-05T02:49:58.825Z,94.90
2017-10-05T02:50:58.747Z,95.05
2017-10-05T02:51:58.868Z,93.95
2017-10-05T02:52:58.786Z,94.18
2017-10-05T02:53:58.816Z,94.97
2017-10-05T02:54:58.844Z,96.26
2017-10-05T02:55:58.866Z,96.26
2017-10-05T02:56:58.793Z,96.70
2017-10-05T02:57:58.820Z,96.33
2017-10-05T02:58:58.843Z,96.33
2017-10-05T02:59:58.792Z,97.86
2017-10-05T03:00:58.864Z,97.47
2017-10-05T03:01:58.884Z,97.15
2017-10-05T03:02:59.711Z,97.83
2017-10-05T03:03:59.636Z,98.84
2017-10-05T03:04:59.757Z,98.83
2017-10-05T03:05:58.865Z,98.89
2017-10-05T03:06:58.887Z,98.71
2017-10-05T03:07:58.805Z,97.74
2017-10-05T03:08:58.834Z,97.78
2017-10-05T03:09:58.859Z,97.90
2017-10-05T03:10:58.878Z,97.75
2017-10-05T03:11:58.904Z,97.71
2017-10-05T03:12:58.832Z,97.80
2017-10-05T03:13:58.862Z,98.66
2017-10-05T03:14:58.881Z,97.85
2017-10-05T03:15:59.502Z,97.57
2017-10-05T03:16:59.750Z,97.22
2017-10-05T03:18:00.084Z,96.83
2017-10-05T03:19:00.114Z,96.44
2017-10-05T03:20:01.037Z,96.96
2017-10-05T03:20:58.842Z,97.79
2017-10-05T03:22:00.273Z,97.13
2017-10-05T03:22:58.885Z,97.22
2017-10-05T03:23:58.903Z,95.70
2017-10-05T03:24:58.925Z,96.64
2017-10-05T03:25:58.861Z,97.36
2017-10-05T03:26:58.886Z,98.29
2017-10-05T03:27:58.921Z,98.43
2017-10-05T03:28:58.855Z,98.51
2017-10-05T03:29:58.891Z,97.66
2017-10-05T03:30:58.861Z,97.54
2017-10-05T03:31:59.693Z,98.69
2017-10-05T03:32:59.625Z,97.31
2017-10-05T03:34:00.191Z,98.33
2017-10-05T03:35:00.125Z,97.99
2017-10-05T03:36:01.760Z,97.00
2017-10-05T03:36:58.876Z,98.04
2017-10-05T03:38:00.231Z,98.20
2017-10-05T03:38:59.562Z,98.44
2017-10-05T03:39:59.940Z,98.87
2017-10-05T03:40:58.926Z,98.45
2017-10-05T03:41:58.963Z,99.60
2017-10-05T03:42:59.002Z,99.17
2017-10-05T03:43:58.932Z,99.31
2017-10-05T03:44:58.971Z,100.00
2017-10-05T03:45:59.012Z,100.00
2017-10-05T03:46:58.950Z,100.00
2017-10-05T03:47:58.984Z,100.00
2017-10-05T03:48:59.019Z,100.00
2017-10-05T03:49:58.959Z,100.00
2017-10-05T03:51:09.454Z,100.00
2017-10-05T03:52:43.839Z,100.00
2017-10-05T03:52:44.449Z,100.00
2017-10-05T03:52:58.991Z,100.00
2017-10-05T03:54:00.436Z,100.00
2017-10-05T03:54:59.669Z,100.00
2017-10-05T03:55:59.711Z,100.00
2017-10-05T03:56:59.640Z,100.00
2017-10-05T03:57:58.974Z,100.00
2017-10-05T03:58:59.051Z,100.00
2017-10-05T03:59:59.062Z,100.00
2017-10-05T04:00:58.985Z,100.00
2017-10-05T04:01:59.005Z,100.00
2017-10-05T04:02:59.032Z,100.00
2017-10-05T04:03:59.088Z,100.00
2017-10-05T04:04:59.094Z,100.00
2017-10-05T04:05:59.030Z,100.00
2017-10-05T04:06:59.063Z,100.00
2017-10-05T04:07:59.116Z,100.00
2017-10-05T04:08:59.130Z,100.00
2017-10-05T04:10:00.369Z,100.00
2017-10-05T04:11:00.389Z,100.00
2017-10-05T04:12:00.510Z,100.00
2017-10-05T04:12:59.772Z,100.00
2017-10-05T04:13:59.805Z,100.00
2017-10-05T04:14:59.017Z,100.00
2017-10-05T04:15:59.042Z,100.00
2017-10-05T04:16:59.066Z,100.00
2017-10-05T04:17:59.085Z,100.00
2017-10-05T04:18:59.130Z,100.00
2017-10-05T04:19:59.047Z,100.00
2017-10-05T04:20:59.164Z,100.00
2017-10-05T04:21:59.220Z,100.00
2017-10-05T04:22:59.123Z,100.00
2017-10-05T04:23:59.051Z,100.00
2017-10-05T04:24:59.791Z,100.00
2017-10-05T04:26:00.420Z,100.00
2017-10-05T04:27:00.356Z,100.00
2017-10-05T04:28:00.382Z,100.00
2017-10-05T04:28:59.699Z,100.00
2017-10-05T04:29:59.822Z,100.00
2017-10-05T04:30:59.943Z,100.00
2017-10-05T04:31:59.153Z,100.00
2017-10-05T04:32:59.161Z,100.00
2017-10-05T04:33:59.088Z,100.00
2017-10-05T04:34:59.119Z,100.00
2017-10-05T04:35:59.132Z,100.00
2017-10-05T04:36:59.151Z,100.00
2017-10-05T04:37:59.345Z,100.00
2017-10-05T04:38:59.210Z,100.00
2017-10-05T04:39:59.149Z,100.00
2017-10-05T04:40:59.875Z,100.00
2017-10-05T04:41:59.889Z,100.00
2017-10-05T04:43:00.524Z,100.00
2017-10-05T04:44:00.441Z,100.00
2017-10-05T04:45:00.569Z,100.00
2017-10-05T04:45:59.991Z,100.00
2017-10-05T04:46:59.815Z,100.00
2017-10-05T04:47:59.952Z,100.00
2017-10-05T04:48:59.204Z,100.00
2017-10-05T04:49:59.227Z,100.00
2017-10-05T04:50:59.243Z,100.00
2017-10-05T04:51:59.178Z,100.00
2017-10-05T04:52:59.230Z,100.00
2017-10-05T04:53:59.152Z,100.00
2017-10-05T04:54:59.192Z,100.00
2017-10-05T04:55:59.144Z,100.00
2017-10-05T04:56:59.193Z,100.00
2017-10-05T04:57:59.219Z,100.00
2017-10-05T04:58:59.974Z,100.00
2017-10-05T05:00:00.403Z,100.00
2017-10-05T05:00:59.948Z,100.00
2017-10-05T05:01:59.086Z,100.00
2017-10-05T05:02:59.161Z,100.00
2017-10-05T05:03:59.834Z,100.00
2017-10-05T05:04:59.216Z,100.00
2017-10-05T05:05:59.202Z,100.00
2017-10-05T05:06:59.246Z,100.00
2017-10-05T05:07:59.256Z,100.00
2017-10-05T05:08:59.336Z,100.00
2017-10-05T05:09:59.215Z,100.00
2017-10-05T05:10:59.260Z,100.00
2017-10-05T05:11:59.227Z,100.00
2017-10-05T05:12:59.294Z,100.00
2017-10-05T05:13:59.247Z,100.00
2017-10-05T05:14:59.212Z,100.00
2017-10-05T05:16:04.861Z,100.00
2017-10-05T05:17:00.528Z,100.00
2017-10-05T05:18:00.102Z,100.00
2017-10-05T05:19:00.559Z,100.00
2017-10-05T05:20:00.720Z,100.00
2017-10-05T05:20:59.256Z,100.00
2017-10-05T05:21:59.312Z,100.00
2017-10-05T05:22:59.360Z,100.00
2017-10-05T05:23:59.315Z,100.00
2017-10-05T05:24:59.358Z,100.00
2017-10-05T05:25:59.304Z,100.00
2017-10-05T05:26:59.332Z,100.00
2017-10-05T05:27:59.580Z,100.00
2017-10-05T05:28:59.298Z,100.00
2017-10-05T05:29:59.338Z,100.00
2017-10-05T05:30:59.367Z,100.00
2017-10-05T05:31:59.337Z,100.00
2017-10-05T05:33:00.063Z,100.00
2017-10-05T05:34:00.106Z,100.00
2017-10-05T05:35:06.200Z,100.00
2017-10-05T05:35:59.385Z,100.00
2017-10-05T05:37:00.309Z,100.00
2017-10-05T05:38:00.064Z,100.00
2017-10-05T05:38:59.342Z,100.00
2017-10-05T05:39:59.308Z,100.00
2017-10-05T05:40:59.366Z,100.00
2017-10-05T05:41:59.363Z,100.00
2017-10-05T05:42:59.386Z,100.00
2017-10-05T05:43:59.412Z,100.00
2017-10-05T05:44:59.379Z,100.00
2017-10-05T05:45:59.391Z,100.00
2017-10-05T05:46:59.397Z,100.00
2017-10-05T05:47:59.440Z,100.00
2017-10-05T05:48:59.413Z,100.00
2017-10-05T05:49:59.417Z,100.00
2017-10-05T05:51:00.655Z,100.00
2017-10-05T05:52:00.710Z,100.00
2017-10-05T05:53:00.267Z,100.00
2017-10-05T05:54:00.318Z,100.00
2017-10-05T05:55:00.196Z,100.00
2017-10-05T05:56:00.532Z,100.00
2017-10-05T05:56:59.457Z,100.00
2017-10-05T05:57:59.505Z,100.00
2017-10-05T05:58:59.548Z,100.00
2017-10-05T05:59:59.428Z,100.00
2017-10-05T06:00:59.487Z,100.00
2017-10-05T06:01:59.442Z,100.00
2017-10-05T06:02:59.493Z,100.00
2017-10-05T06:03:59.532Z,100.00
2017-10-05T06:04:59.471Z,100.00
2017-10-05T06:05:59.438Z,100.00
2017-10-05T06:06:59.467Z,100.00
2017-10-05T06:08:00.719Z,100.00
2017-10-05T06:09:00.653Z,100.00
2017-10-05T06:10:00.729Z,100.00
2017-10-05T06:11:00.771Z,100.00
2017-10-05T06:12:00.722Z,100.00
2017-10-05T06:13:00.253Z,100.00
2017-10-05T06:13:59.485Z,100.00
2017-10-05T06:14:59.511Z,100.00
2017-10-05T07:29:23.285Z,100.00
2017-10-05T07:29:59.361Z,100.00
2017-10-05T07:31:00.362Z,100.00
2017-10-05T07:32:00.893Z,100.00
2017-10-05T07:33:00.843Z,100.00
2017-10-05T07:33:59.826Z,100.00
2017-10-05T07:34:59.862Z,100.00
2017-10-05T07:35:59.848Z,100.00
2017-10-05T07:36:59.881Z,100.00
2017-10-05T07:37:59.813Z,100.00
2017-10-05T07:38:59.765Z,100.00
2017-10-05T07:39:59.921Z,100.00
2017-10-05T07:40:59.858Z,100.00
2017-10-05T07:41:59.903Z,100.00
2017-10-05T07:42:59.932Z,100.00
2017-10-05T07:43:59.877Z,100.00
2017-10-05T07:44:59.927Z,100.00
2017-10-05T07:45:59.964Z,100.00
2017-10-05T07:46:59.906Z,100.00
2017-10-05T07:47:59.838Z,100.00
2017-10-05T07:49:00.998Z,100.00
2017-10-05T07:50:01.148Z,100.00
2017-10-05T07:50:59.883Z,100.00
2017-10-05T07:51:59.843Z,100.00
2017-10-05T07:52:59.899Z,100.00
2017-10-05T07:53:59.936Z,100.00
2017-10-05T07:54:59.873Z,100.00
2017-10-05T07:55:59.935Z,100.00
2017-10-05T07:56:59.899Z,100.00
2017-10-05T07:57:59.940Z,100.00
2017-10-05T07:58:59.970Z,100.00
2017-10-05T07:59:59.922Z,100.00
2017-10-05T08:00:59.980Z,100.00
2017-10-05T08:02:00.239Z,100.00
2017-10-05T08:02:59.976Z,100.00
2017-10-05T08:04:01.012Z,100.00
2017-10-05T08:05:00.846Z,100.00
2017-10-05T08:06:01.201Z,100.00
2017-10-05T08:06:59.931Z,100.00
2017-10-05T08:07:59.972Z,100.00
2017-10-05T08:08:59.910Z,100.00
2017-10-05T08:10:00.140Z,100.00
2017-10-05T08:10:59.994Z,100.00
2017-10-05T08:11:59.977Z,100.00
2017-10-05T08:13:00.034Z,100.00
2017-10-05T08:13:59.970Z,100.00
2017-10-05T08:15:00.004Z,100.00
2017-10-05T08:16:00.037Z,100.00
2017-10-05T08:16:59.966Z,100.00
2017-10-05T08:17:59.999Z,100.00
2017-10-05T08:18:59.961Z,100.00
2017-10-05T08:20:01.285Z,100.00
2017-10-05T08:21:01.019Z,100.00
2017-10-05T08:22:00.956Z,100.00
2017-10-05T08:23:01.486Z,100.00
2017-10-05T08:24:01.024Z,100.00
2017-10-05T08:25:00.083Z,100.00
2017-10-05T08:26:00.016Z,100.00
2017-10-05T08:27:00.114Z,100.00
2017-10-05T08:28:00.048Z,100.00
2017-10-05T08:28:59.999Z,100.00
2017-10-05T08:30:00.061Z,100.00
2017-10-05T08:31:00.019Z,100.00
2017-10-05T08:32:00.038Z,100.00
2017-10-05T08:32:59.993Z,100.00
2017-10-05T08:34:00.343Z,100.00
2017-10-05T08:35:00.002Z,100.00
2017-10-05T08:36:00.076Z,100.00
2017-10-05T08:37:00.018Z,100.00
2017-10-05T08:38:00.060Z,100.00
2017-10-05T08:39:01.318Z,100.00
2017-10-05T08:40:00.955Z,100.00
2017-10-05T08:41:01.077Z,100.00
2017-10-05T08:42:00.114Z,100.00
2017-10-05T08:43:00.033Z,100.00
2017-10-05T08:44:00.078Z,100.00
2017-10-05T08:45:00.131Z,100.00
2017-10-05T08:46:00.178Z,100.00
2017-10-05T08:47:00.127Z,100.00
2017-10-05T08:48:00.067Z,100.00
2017-10-05T08:49:00.215Z,100.00
2017-10-05T08:50:00.069Z,100.00
2017-10-05T08:51:00.120Z,100.00
2017-10-05T08:52:00.051Z,100.00
2017-10-05T08:53:00.090Z,100.00
2017-10-05T08:54:00.127Z,100.00
2017-10-05T08:55:00.077Z,100.00
2017-10-05T08:56:01.136Z,100.00
2017-10-05T08:57:01.002Z,100.00
2017-10-05T08:58:00.140Z,100.00
2017-10-05T08:59:00.081Z,100.00
2017-10-05T09:00:01.540Z,100.00
2017-10-05T09:01:00.201Z,100.00
2017-10-05T09:02:00.147Z,100.00
2017-10-05T09:03:00.106Z,100.00
2017-10-05T09:04:00.142Z,100.00
2017-10-05T09:05:00.184Z,100.00
2017-10-05T09:06:00.135Z,100.00
2017-10-05T09:07:00.279Z,100.00
2017-10-05T09:08:00.115Z,100.00
2017-10-05T09:09:00.158Z,100.00
2017-10-05T09:10:00.118Z,100.00
2017-10-05T09:11:00.172Z,100.00
2017-10-05T09:12:00.142Z,100.00
2017-10-05T09:13:01.203Z,100.00
2017-10-05T09:14:01.072Z,100.00
2017-10-05T09:15:00.132Z,100.00
2017-10-05T09:16:00.178Z,100.00
2017-10-05T09:17:00.169Z,100.00
2017-10-05T09:18:01.543Z,100.00
2017-10-05T09:19:01.417Z,100.00
2017-10-05T09:20:00.177Z,100.00
2017-10-05T09:21:00.180Z,100.00
2017-10-05T09:22:00.205Z,100.00
2017-10-05T09:23:00.182Z,100.00
2017-10-05T09:24:00.181Z,100.00
2017-10-05T09:25:00.254Z,100.00
2017-10-05T09:26:00.237Z,100.00
2017-10-05T09:27:00.231Z,100.00
2017-10-05T09:28:00.191Z,100.00
2017-10-05T09:29:01.273Z,100.00
2017-10-05T09:30:01.335Z,100.00
2017-10-05T09:31:01.495Z,100.00
2017-10-05T09:32:00.240Z,100.00
2017-10-05T09:33:01.418Z,100.00
2017-10-05T09:34:00.259Z,100.00
2017-10-05T09:35:00.255Z,100.00
2017-10-05T09:36:00.244Z,100.00
2017-10-05T09:37:00.332Z,100.00
2017-10-05T09:38:00.231Z,100.00
2017-10-05T09:39:00.142Z,100.00
2017-10-05T09:40:00.251Z,100.00
2017-10-05T09:41:00.245Z,100.00
2017-10-05T09:42:00.300Z,100.00
2017-10-05T09:43:00.264Z,100.00
2017-10-05T09:44:00.307Z,100.00
2017-10-05T09:45:00.262Z,100.00
2017-10-05T09:46:00.322Z,100.00
2017-10-05T09:47:00.263Z,100.00
2017-10-05T09:48:01.723Z,100.00
2017-10-05T09:49:01.574Z,100.00
2017-10-05T09:50:00.314Z,100.00
2017-10-05T09:51:00.258Z,100.00
2017-10-05T09:52:00.312Z,100.00
2017-10-05T09:53:00.265Z,100.00
2017-10-05T09:54:00.321Z,100.00
2017-10-05T09:55:00.367Z,100.00
2017-10-05T09:56:00.296Z,100.00
2017-10-05T09:57:00.434Z,100.00
2017-10-05T09:58:00.267Z,100.00
2017-10-05T09:59:00.296Z,100.00
2017-10-05T10:00:00.359Z,100.00
2017-10-05T10:01:00.314Z,100.00
2017-10-05T10:02:00.369Z,100.00
2017-10-05T10:03:00.337Z,100.00
2017-10-05T10:04:00.363Z,100.00
2017-10-05T10:05:01.597Z,100.00
2017-10-05T10:06:01.591Z,100.00
2017-10-05T10:07:01.278Z,100.00
2017-10-05T10:08:00.356Z,100.00
2017-10-05T10:09:00.384Z,100.00
2017-10-05T10:10:00.348Z,100.00
2017-10-05T10:11:00.369Z,100.00
2017-10-05T10:12:00.375Z,100.00
2017-10-05T10:13:00.321Z,100.00
2017-10-05T10:14:00.401Z,100.00
2017-10-05T10:15:00.336Z,99.67
2017-10-05T10:16:00.407Z,100.00
2017-10-05T10:17:00.387Z,100.00
2017-10-05T10:18:00.427Z,100.00
2017-10-05T10:19:00.400Z,100.00
2017-10-05T10:20:00.363Z,100.00
2017-10-05T10:21:01.424Z,100.00
2017-10-05T10:22:01.401Z,100.00
2017-10-05T10:23:01.340Z,100.00
2017-10-05T10:24:01.366Z,100.00
2017-10-05T10:25:00.359Z,100.00
2017-10-05T10:26:00.437Z,100.00
2017-10-05T10:27:00.386Z,100.00
2017-10-05T10:28:00.445Z,100.00
2017-10-05T10:29:00.418Z,100.00
2017-10-05T10:30:00.454Z,100.00
2017-10-05T10:31:00.437Z,100.00
2017-10-05T10:32:00.472Z,100.00
2017-10-05T10:33:00.508Z,100.00
2017-10-05T10:34:00.402Z,100.00
2017-10-05T10:35:00.438Z,100.00
2017-10-05T10:36:00.401Z,100.00
2017-10-05T10:37:00.444Z,100.00
2017-10-05T10:38:00.483Z,100.00
2017-10-05T10:39:01.859Z,99.89
2017-10-05T10:40:01.388Z,100.00
2017-10-05T10:41:01.433Z,100.00
2017-10-05T10:42:00.459Z,100.00
2017-10-05T10:43:00.512Z,100.00
2017-10-05T10:44:00.460Z,99.70
2017-10-05T10:45:00.497Z,99.48
2017-10-05T10:46:00.481Z,98.75
2017-10-05T10:47:00.529Z,99.57
2017-10-05T10:48:00.490Z,100.00
2017-10-05T10:49:00.437Z,100.00
2017-10-05T10:50:00.495Z,100.00
2017-10-05T10:51:00.465Z,100.00
2017-10-05T10:52:00.466Z,99.70
2017-10-05T10:53:00.458Z,100.00
2017-10-05T10:54:00.478Z,100.00
2017-10-05T10:55:00.467Z,100.00
2017-10-05T10:56:03.162Z,100.00
2017-10-05T10:57:00.502Z,100.00
2017-10-05T10:58:02.396Z,100.00
2017-10-05T10:59:01.766Z,100.00
2017-10-05T11:00:00.514Z,100.00
2017-10-05T11:01:00.528Z,100.00
2017-10-05T11:02:00.566Z,100.00
2017-10-05T11:03:00.499Z,100.00
2017-10-05T11:04:00.545Z,99.18
2017-10-05T11:05:00.574Z,99.88
2017-10-05T11:06:00.720Z,100.00
2017-10-05T11:07:00.457Z,100.00
2017-10-05T11:08:00.555Z,98.79
2017-10-05T11:09:00.603Z,97.71
2017-10-05T11:10:00.867Z,99.03
2017-10-05T11:11:00.617Z,98.50
2017-10-05T11:12:00.564Z,97.97
2017-10-05T11:13:00.530Z,98.61
2017-10-05T11:14:02.516Z,99.81
2017-10-05T11:15:00.566Z,100.00
2017-10-05T11:16:00.626Z,96.48
2017-10-05T11:17:00.540Z,96.75
2017-10-05T11:18:00.594Z,95.62
2017-10-05T11:19:00.544Z,97.19
2017-10-05T11:20:00.585Z,95.59
2017-10-05T11:21:00.620Z,99.04
2017-10-05T11:22:00.599Z,98.73
2017-10-05T11:23:00.638Z,97.54
2017-10-05T11:24:00.615Z,97.66
2017-10-05T11:25:00.566Z,96.00
2017-10-05T11:26:00.633Z,97.43
2017-10-05T11:27:00.625Z,96.38
2017-10-05T11:28:00.680Z,97.51
2017-10-05T11:29:00.784Z,97.42
2017-10-05T11:30:00.624Z,97.19
2017-10-05T11:31:01.721Z,96.93
2017-10-05T11:32:00.607Z,96.53
2017-10-05T11:33:00.591Z,97.00
2017-10-05T11:34:00.673Z,97.53
2017-10-05T11:35:00.669Z,97.61
2017-10-05T11:36:00.686Z,95.81
2017-10-05T11:37:00.655Z,98.06
2017-10-05T11:38:00.638Z,98.39
2017-10-05T11:39:00.672Z,99.82
2017-10-05T11:40:00.663Z,94.99
2017-10-05T11:41:00.716Z,97.71
2017-10-05T11:42:00.760Z,99.38
2017-10-05T11:43:01.043Z,96.10
2017-10-05T11:44:00.708Z,96.48
2017-10-05T11:45:00.711Z,95.01
2017-10-05T11:46:00.629Z,97.51
2017-10-05T11:47:01.975Z,94.35
2017-10-05T11:48:01.854Z,96.05
2017-10-05T11:49:01.614Z,97.08
2017-10-05T11:50:00.726Z,95.72
2017-10-05T11:51:00.741Z,96.64
2017-10-05T11:52:00.644Z,96.79
2017-10-05T11:53:00.735Z,96.25
2017-10-05T11:54:00.695Z,97.75
2017-10-05T11:55:00.731Z,95.99
2017-10-05T11:56:00.779Z,95.68
2017-10-05T11:57:00.717Z,93.75
2017-10-05T11:58:00.756Z,94.81
2017-10-05T11:59:00.689Z,96.33
2017-10-05T12:00:00.735Z,95.82
2017-10-05T12:01:00.780Z,96.15
2017-10-05T12:02:00.768Z,93.17
2017-10-05T12:03:00.700Z,94.85
2017-10-05T12:04:00.745Z,94.07
2017-10-05T12:05:02.110Z,95.98
2017-10-05T12:06:00.738Z,92.72
2017-10-05T12:07:00.795Z,92.27
2017-10-05T12:08:00.725Z,91.67
2017-10-05T12:09:00.750Z,92.39
2017-10-05T12:10:00.811Z,92.38
2017-10-05T12:11:00.755Z,92.73
2017-10-05T12:12:00.795Z,92.66
2017-10-05T12:13:00.825Z,89.43
2017-10-05T12:14:01.074Z,90.03
2017-10-05T12:15:00.815Z,90.34
2017-10-05T12:16:00.753Z,94.37
2017-10-05T12:17:00.788Z,90.00
2017-10-05T12:18:00.728Z,92.56
2017-10-05T12:19:00.733Z,89.18
2017-10-05T12:20:00.782Z,91.10
2017-10-05T12:21:02.216Z,88.94
2017-10-05T12:22:01.751Z,90.92
2017-10-05T12:23:00.783Z,90.01
2017-10-05T12:24:00.817Z,90.43
2017-10-05T12:25:00.867Z,90.32
2017-10-05T12:26:00.807Z,91.40
2017-10-05T12:27:00.776Z,89.18
2017-10-05T12:28:00.815Z,90.96
2017-10-05T12:29:00.863Z,88.85
2017-10-05T12:30:00.803Z,92.38
2017-10-05T12:31:00.877Z,88.18
2017-10-05T12:32:00.822Z,89.36
2017-10-05T12:33:00.879Z,89.85
2017-10-05T12:34:00.819Z,89.80
2017-10-05T12:35:00.781Z,89.27
2017-10-05T12:36:00.850Z,88.43
2017-10-05T12:37:00.909Z,88.95
2017-10-05T12:38:00.834Z,90.71
2017-10-05T12:39:00.861Z,92.47
2017-10-05T12:40:02.826Z,92.60
2017-10-05T12:41:00.868Z,92.83
2017-10-05T12:42:00.905Z,92.94
2017-10-05T12:43:00.840Z,94.65
2017-10-05T12:44:00.928Z,93.80
2017-10-05T12:45:00.866Z,94.54
2017-10-05T12:46:00.816Z,96.00
2017-10-05T12:47:00.861Z,96.42
2017-10-05T12:48:00.903Z,98.53
2017-10-05T12:49:00.856Z,99.23
2017-10-05T12:50:00.855Z,99.32
2017-10-05T12:51:00.892Z,99.68
2017-10-05T12:52:00.937Z,98.06
2017-10-05T12:53:00.872Z,99.75
2017-10-05T12:54:00.911Z,99.24
2017-10-05T12:55:01.855Z,100.00
2017-10-05T12:56:02.157Z,100.00
2017-10-05T12:57:02.101Z,100.00
2017-10-05T12:58:00.948Z,100.00
2017-10-05T12:59:00.906Z,100.00
2017-10-05T13:00:00.945Z,100.00
2017-10-05T13:01:00.998Z,100.00
2017-10-05T13:02:00.933Z,100.00
2017-10-05T13:03:00.975Z,100.00
2017-10-05T13:04:00.916Z,100.00
2017-10-05T13:05:00.972Z,100.00
2017-10-05T13:06:00.937Z,100.00
2017-10-05T13:07:00.985Z,100.00
2017-10-05T13:08:01.024Z,100.00
2017-10-05T13:09:00.913Z,100.00
2017-10-05T13:10:01.969Z,100.00
2017-10-05T13:11:02.007Z,100.00
2017-10-05T13:12:01.821Z,100.00
2017-10-05T13:13:01.983Z,100.00
2017-10-05T13:14:02.035Z,100.00
2017-10-05T13:15:01.980Z,100.00
2017-10-05T13:16:01.011Z,100.00
2017-10-05T13:17:01.050Z,100.00
2017-10-05T13:18:00.994Z,100.00
2017-10-05T13:19:02.234Z,100.00
2017-10-05T13:20:01.053Z,100.00
2017-10-05T13:21:01.001Z,100.00
2017-10-05T13:22:00.958Z,100.00
2017-10-05T13:23:00.989Z,100.00
2017-10-05T13:24:01.019Z,100.00
2017-10-05T13:25:01.046Z,100.00
2017-10-05T13:26:00.876Z,100.00
2017-10-05T13:27:01.116Z,100.00
2017-10-05T13:28:01.045Z,98.85
2017-10-05T13:29:01.074Z,100.00
2017-10-05T13:30:01.018Z,100.00
2017-10-05T13:31:02.069Z,98.65
2017-10-05T13:32:00.990Z,98.99
2017-10-05T13:33:02.330Z,99.46
2017-10-05T13:34:01.047Z,98.90
2017-10-05T13:35:01.086Z,98.90
2017-10-05T13:36:01.019Z,99.51
2017-10-05T13:37:01.059Z,99.77
2017-10-05T13:38:01.085Z,99.17
2017-10-05T13:39:01.116Z,100.00
2017-10-05T13:40:01.086Z,97.09
2017-10-05T13:41:01.127Z,100.00
2017-10-05T13:42:01.089Z,99.78
2017-10-05T13:43:01.078Z,98.10
2017-10-05T13:44:01.103Z,96.49
2017-10-05T13:45:01.129Z,97.70
2017-10-05T13:46:01.077Z,94.79
2017-10-05T13:47:01.159Z,97.15
2017-10-05T13:48:01.145Z,94.76
2017-10-05T13:49:01.430Z,96.07
2017-10-05T13:50:01.127Z,97.50
2017-10-05T13:51:03.520Z,95.61
2017-10-05T13:52:01.116Z,97.61